Olivenhain (182, 1250) Station Data

Red Flag Warning: No
Fire Weather Zone: 250
SDGE Region: North East
Lat/Lon: 33.08/-117.13

Observations

Time Wind Speed/Gust Temp(F) RH Fuel Moist Fuel Temp(F) Dewpt(F) Tmax(F) Tmin(F) Accum Precip 10-min Precip SL Press(mb)
3/29 8:00am 215 1 G 2 64° 33% - - 34° 65.2° 54.9° - - -
3/29 7:50am 209 2 G 3 63° 30% - - 31° 64° 54.9° - - -
3/29 7:40am 255 1 G 2 63° 29% - - 31° 64° 54.9° - - -
3/29 7:30am 38 1 G 3 62° 27% - - 28° 63.8° 54.9° - - -
3/29 7:20am 345 2 G 4 62° 30% - - 30° 63.8° 54.9° - - -
3/29 7:10am 360 3 G 5 60° 34% - - 31° 63.7° 54.9° - - -
3/29 7:00am 1 1 G 2 62° 30% - - 30° 63.7° 54.9° - - -
3/29 6:50am 13 4 G 5 59° 31% - - 28° 63.7° 54.9° - - -
3/29 6:40am 20 4 G 6 58° 34% - - 30° 63.7° 54.9° - - -
3/29 6:30am 29 3 G 6 62° 32% - - 32° 63.7° 54.9° - - -
3/29 6:20am 53 1 G 3 62° 32% - - 32° 63.7° 54.9° - - -
3/29 6:10am 59 2 G 4 61° 35% - - 33° 63.7° 54.9° - - -
3/29 6:00am 21 1 G 3 62° 31% - - 31° 63.7° 54.9° - - -
3/29 5:50am 218 1 G 2 61° 36% - - 33° 63.7° 54.9° - - -
3/29 5:40am 360 4 G 6 61° 34% - - 33° 63.7° 54.9° - - -
3/29 5:30am 15 5 G 5 59° 41% - - 36° 62.6° 54.9° - - -
3/29 5:20am 16 5 G 6 58° 44% - - 37° 62.6° 54.9° - - -
3/29 5:10am 21 5 G 7 59° 46% - - 38° 62.6° 54.9° - - -
3/29 5:00am 22 5 G 6 58° 47% - - 38° 62.6° 54.9° - - -
3/29 4:50am 23 4 G 6 59° 48% - - 39° 62.6° 54.9° - - -
3/29 4:40am 22 4 G 5 59° 46% - - 39° 62.6° 54.9° - - -
3/29 4:30am 11 3 G 4 60° 45% - - 38° 62.6° 54.9° - - -
3/29 4:20am 3 4 G 6 60° 45% - - 39° 62.6° 54.9° - - -
3/29 4:10am 355 5 G 7 61° 45% - - 40° 62.6° 54.9° - - -
3/29 4:00am 0 5 G 7 61° 47% - - 40° 62.6° 54.9° - - -
3/29 3:50am 9 4 G 6 61° 45% - - 40° 62.6° 54.9° - - -
3/29 3:40am 14 4 G 6 62° 45% - - 40° 62.6° 54.9° - - -
3/29 3:30am 358 5 G 5 62° 45% - - 40° 62.6° 54.9° - - -
3/29 3:20am 356 5 G 7 61° 47% - - 40° 61.7° 54.9° - - -
3/29 3:10am 7 4 G 6 60° 50% - - 41° 60.9° 54.9° - - -
3/29 3:00am 16 4 G 6 59° 50% - - 41° 60.9° 54.9° - - -
3/29 2:50am 33 5 G 7 59° 49% - - 40° 60.9° 54.9° - - -
3/29 2:40am 56 6 G 8 59° 52% - - 41° 60.9° 54.9° - - -
3/29 2:30am 42 6 G 10 56° 57% - - 41° 60.9° 54.9° - - -
3/29 2:20am 30 5 G 8 57° 56% - - 42° 60.9° 54.9° - - -
3/29 2:10am 17 5 G 7 58° 55% - - 42° 60.9° 54.9° - - -
3/29 2:00am 19 5 G 7 58° 53% - - 41° 60.9° 54.9° - - -
3/29 1:50am 21 4 G 7 57° 56% - - 41° 60.9° 54.9° - - -
3/29 1:40am 28 5 G 8 58° 54% - - 41° 60.9° 54.9° - - -
3/29 1:30am 23 4 G 5 59° 48% - - 39° 60.9° 54.9° - - -
3/29 1:20am 15 3 G 4 59° 44% - - 37° 60.9° 54.9° - - -
3/29 1:10am 37 3 G 5 59° 43% - - 37° 60.9° 54.9° - - -
3/29 1:00am 15 2 G 3 56° 55% - - 40° 60.7° 54.9° - - -
3/29 12:50am 41 4 G 7 55° 59% - - 41° 60.7° 54.9° - - -
3/29 12:40am 23 5 G 6 56° 59% - - 41° 60.7° 54.9° - - -
3/29 12:30am 23 6 G 8 56° 56% - - 41° 60.7° 55.3° - - -
3/29 12:20am 11 3 G 6 57° 52% - - 40° 60.7° 56.3° - - -
3/29 12:10am 73 3 G 5 60° 44% - - 38° 60.7° 58.5° - - -
3/29 12:00am 58 3 G 5 59° 47% - - 39° 68° 47.2° - - -
3/28 11:50pm 68 4 G 5 59° 48% - - 39° 68° 47.2° - - -
3/28 11:40pm 65 4 G 6 59° 48% - - 39° 68° 47.2° - - -
3/28 11:30pm 49 3 G 4 59° 49% - - 40° 68° 47.2° - - -
3/28 11:20pm 68 4 G 4 60° 46% - - 39° 68° 47.2° - - -
3/28 11:10pm 50 3 G 4 58° 53% - - 41° 68° 47.2° - - -
3/28 11:00pm 57 4 G 5 58° 52% - - 41° 68° 47.2° - - -
3/28 10:50pm 59 5 G 6 58° 53% - - 41° 68° 47.2° - - -
3/28 10:40pm 64 5 G 7 58° 52% - - 41° 68° 47.2° - - -
3/28 10:30pm 52 3 G 5 58° 54% - - 41° 68° 47.2° - - -
3/28 10:20pm 49 3 G 4 59° 51% - - 41° 68° 47.2° - - -
3/28 10:10pm 67 3 G 4 59° 48% - - 40° 68° 47.2° - - -
3/28 10:00pm 58 2 G 3 58° 54% - - 41° 68° 47.2° - - -
3/28 9:50pm 34 2 G 3 58° 55% - - 42° 68° 47.2° - - -
3/28 9:40pm 32 3 G 5 59° 47% - - 39° 68° 47.2° - - -
3/28 9:30pm 29 4 G 4 60° 41% - - 36° 68° 47.2° - - -
3/28 9:20pm 45 3 G 5 60° 38% - - 35° 68° 47.2° - - -
3/28 9:10pm 57 2 G 4 60° 39% - - 35° 68° 47.2° - - -
3/28 9:00pm 5 0 G 2 59° 43% - - 37° 68° 47.2° - - -
3/28 8:50pm 37 1 G 2 60° 42% - - 37° 68° 47.2° - - -
3/28 8:40pm 323 2 G 3 60° 41% - - 36° 68° 47.2° - - -
3/28 8:30pm 352 3 G 4 60° 44% - - 38° 68° 47.2° - - -
3/28 8:20pm 312 4 G 5 60° 47% - - 39° 68° 47.2° - - -
3/28 8:10pm 212 2 G 4 59° 56% - - 43° 68° 47.2° - - -
3/28 8:00pm 217 4 G 5 59° 57% - - 43° 68° 47.2° - - -
3/28 7:50pm 223 4 G 5 59° 56% - - 43° 68° 47.2° - - -
3/28 7:40pm 244 2 G 6 60° 53% - - 42° 68° 47.2° - - -
3/28 7:30pm 234 4 G 6 60° 55% - - 43° 68° 47.2° - - -
3/28 7:20pm 227 4 G 6 60° 54% - - 43° 68° 47.2° - - -
3/28 7:10pm 210 4 G 6 61° 48% - - 41° 68° 47.2° - - -
3/28 7:00pm 225 5 G 9 61° 40% - - 36° 68° 47.2° - - -
3/28 6:50pm 233 7 G 10 62° 39% - - 36° 68° 47.2° - - -
3/28 6:40pm 243 5 G 9 62° 39% - - 37° 68° 47.2° - - -
3/28 6:30pm 231 8 G 12 62° 42% - - 39° 68° 47.2° - - -
3/28 6:20pm 218 8 G 11 63° 44% - - 40° 68° 47.2° - - -
3/28 6:10pm 221 9 G 13 63° 39% - - 38° 68° 47.2° - - -
3/28 6:00pm 219 11 G 17 63° 43% - - 40° 68° 47.2° - - -
3/28 5:50pm 224 11 G 15 63° 45% - - 41° 68° 47.2° - - -
3/28 5:40pm 225 11 G 15 63° 44% - - 41° 68° 47.2° - - -
3/28 5:30pm 224 11 G 16 63° 44% - - 41° 68° 47.2° - - -
3/28 5:20pm 231 13 G 19 63° 45% - - 42° 68° 47.2° - - -
3/28 5:10pm 231 13 G 19 63° 51% - - 44° 68° 47.2° - - -
3/28 5:00pm 229 14 G 21 64° 51% - - 45° 68° 47.2° - - -
3/28 4:50pm 231 13 G 19 64° 48% - - 44° 68° 47.2° - - -
3/28 4:40pm 240 10 G 19 64° 45% - - 43° 68° 47.2° - - -
3/28 4:30pm 234 12 G 19 65° 43% - - 42° 68° 47.2° - - -
3/28 4:20pm 232 13 G 19 65° 43% - - 42° 68° 47.2° - - -
3/28 4:10pm 224 13 G 19 65° 41% - - 41° 68° 47.2° - - -
3/28 4:00pm 228 14 G 19 65° 43% - - 42° 68° 47.2° - - -
3/28 3:50pm 227 14 G 21 65° 44% - - 43° 68° 47.2° - - -
3/28 3:40pm 225 14 G 20 65° 46% - - 44° 68° 47.2° - - -
3/28 3:30pm 229 13 G 19 66° 44% - - 43° 68° 47.2° - - -
3/28 3:20pm 224 13 G 19 66° 45% - - 44° 68° 47.2° - - -
3/28 3:10pm 230 12 G 18 66° 44% - - 43° 68° 47.2° - - -
3/28 3:00pm 229 12 G 18 66° 41% - - 42° 68° 47.2° - - -
3/28 2:50pm 230 12 G 18 66° 41% - - 41° 68° 47.2° - - -
3/28 2:40pm 224 11 G 19 67° 42% - - 43° 68° 47.2° - - -
3/28 2:30pm 228 11 G 15 66° 43% - - 43° 68° 47.2° - - -
3/28 2:20pm 222 10 G 15 66° 45% - - 44° 68° 47.2° - - -
3/28 2:10pm 226 10 G 14 66° 49% - - 46° 68° 47.2° - - -
3/28 2:00pm 224 10 G 15 65° 50% - - 46° 68° 47.2° - - -
3/28 1:50pm 225 11 G 19 66° 51% - - 47° 68° 47.2° - - -
3/28 1:40pm 221 10 G 16 65° 52% - - 47° 68° 47.2° - - -
3/28 1:30pm 221 12 G 17 65° 53% - - 48° 68° 47.2° - - -
3/28 1:20pm 224 12 G 18 65° 56% - - 49° 68° 47.2° - - -
3/28 1:10pm 218 14 G 20 65° 58% - - 50° 68° 47.2° - - -
3/28 1:00pm 222 9 G 14 65° 57% - - 49° 68° 47.2° - - -
3/28 12:50pm 226 11 G 18 64° 57% - - 48° 68° 47.2° - - -
3/28 12:40pm 215 13 G 18 64° 56% - - 48° 68° 47.2° - - -
3/28 12:30pm 220 11 G 17 64° 52% - - 46° 68° 47.2° - - -
3/28 12:20pm 220 12 G 18 64° 52% - - 46° 68° 47.2° - - -
3/28 12:10pm 223 12 G 18 64° 52% - - 46° 68° 47.2° - - -
3/28 12:00pm 227 10 G 17 64° 50% - - 45° 68° 47.2° - - -
3/28 11:50am 227 11 G 17 64° 48% - - 44° 68° 47.2° - - -
3/28 11:40am 234 4 G 12 66° 38% - - 39° 68° 47.2° - - -
3/28 11:30am 331 5 G 11 67° 25% - - 30° 68° 47.2° - - -
3/28 11:20am 320 6 G 13 66° 25% - - 29° 66.7° 47.2° - - -
3/28 11:10am 349 7 G 12 66° 28% - - 32° 66.6° 47.2° - - -
3/28 11:00am 2 7 G 13 65° 29% - - 32° 66.1° 47.2° - - -
3/28 10:50am 325 6 G 12 65° 30% - - 33° 65.5° 47.2° - - -
3/28 10:40am 322 6 G 13 64° 31% - - 33° 65.2° 47.2° - - -
3/28 10:30am 341 5 G 12 64° 33% - - 35° 64.9° 47.2° - - -
3/28 10:20am 1 8 G 17 63° 34% - - 34° 63.8° 47.2° - - -
3/28 10:10am 8 10 G 16 62° 37% - - 36° 63.3° 47.2° - - -
3/28 10:00am 4 10 G 17 61° 41% - - 37° 62.1° 47.2° - - -
3/28 9:50am 4 10 G 14 60° 43% - - 38° 61.1° 47.2° - - -
3/28 9:40am 5 10 G 16 60° 46% - - 39° 60.4° 47.2° - - -
3/28 9:30am 2 8 G 14 59° 50% - - 40° 59.9° 47.2° - - -
3/28 9:20am 10 6 G 11 59° 54% - - 42° 59.9° 47.2° - - -
3/28 9:10am 43 4 G 8 58° 60% - - 44° 59.1° 47.2° - - -
3/28 9:00am 37 3 G 7 58° 59% - - 44° 59.1° 47.2° - - -
3/28 8:50am 47 3 G 8 57° 62% - - 44° 58° 47.2° - - -
3/28 8:40am 40 2 G 5 56° 69% - - 46° 56.8° 47.2° - - -
3/28 8:30am 32 3 G 5 56° 70% - - 46° 56.1° 47.2° - - -
3/28 8:20am 34 2 G 3 55° 74% - - 47° 56° 47.2° - - -
3/28 8:10am 38 3 G 5 53° 76% - - 46° 54.5° 47.2° - - -
3/28 8:00am 35 5 G 6 52° 77% - - 45° 53.6° 47.2° - - -
3/28 7:50am 35 5 G 6 50° 80% - - 44° 53.6° 47.2° - - -
3/28 7:40am 32 5 G 7 50° 81% - - 44° 53.6° 47.2° - - -
3/28 7:30am 32 5 G 7 49° 83% - - 44° 53.6° 47.2° - - -
3/28 7:20am 16 5 G 7 48° 85% - - 44° 53.6° 47.2° - - -
3/28 7:10am 20 5 G 8 48° 86% - - 44° 53.6° 47.2° - - -
3/28 7:00am 5 5 G 6 48° 86% - - 44° 53.6° 47.2° - - -
3/28 6:50am 14 5 G 6 48° 88% - - 44° 53.6° 47.2° - - -
3/28 6:40am 26 3 G 5 48° 88% - - 45° 53.6° 47.5° - - -
3/28 6:30am 28 4 G 6 49° 86% - - 45° 53.6° 48° - - -
3/28 6:20am 358 3 G 4 51° 86% - - 47° 53.6° 48.6° - - -
3/28 6:10am 343 2 G 4 52° 84% - - 47° 53.6° 48.6° - - -
3/28 6:00am 322 1 G 4 52° 85% - - 47° 53.6° 48.6° - - -